NEODyS-2

Near Earth Objects - Dynamic Site
NEODyS ∴ Observatories ∴ Site 691 ∴ Obs & residuals
Contact »
691  ▹ 
OBSERVATIONS AND RESIDUALS

691-Steward Observatory, Kitt Peak-Spacewatch

Detections | Residuals | Detections & Residuals

[1-200] [201-400] [401-600] [601-800] [801-1000] [1001-1200] [1201-1400] [1401-1600] [1601-1800] [1801-2000] [2001-2200] [2201-2400] [2401-2600] [2601-2800] [2801-3000] [3001-3200] [3201-3400] [3401-3600] [3601-3800] [3801-4000] [4001-4200] [4201-4400] [4401-4600] [4601-4800] [4801-5000] [5001-5200] [5201-5400] [5401-5600] [5601-5800] [5801-6000] [6001-6200] [6201-6400] [6401-6600] [6601-6800] [6801-7000] [7001-7200] [7201-7400] [7401-7600] [7601-7800] [7801-8000] [8001-8200] [8201-8400] [8401-8600] [8601-8800] [8801-9000] [9001-9200] [9201-9400] [9401-9600] [9601-9800] [9801-10000] [10001-10200] [10201-10400] [10401-10600] [10601-10800] [10801-11000] [11001-11200] [11201-11400] [11401-11600] [11601-11800] [11801-12000] [12001-12200] [12201-12400] [12401-12600] [12601-12800] [12801-13000] [13001-13200] [13201-13400] [13401-13600] [13601-13800] [13801-14000] [14001-14200] [14201-14400] [14401-14600] [14601-14800] [14801-15000] [15001-15200] [15201-15400] [15401-15600] [15601-15800] [15801-16000] [16001-16200] [16201-16400] [16401-16600] [16601-16800] [16801-17000] [17001-17200] [17201-17400] [17401-17600] [17601-17800] [17801-18000] [18001-18200] [18201-18400] [18401-18600] [18601-18800] [18801-19000] [19001-19200] [19201-19400] [19401-19600] [19601-19800] [19801-20000] [20001-20200] [20201-20400] [20401-20600] [20601-20800] [20801-21000] [21001-21200] [21201-21400] [21401-21600] [21601-21800] [21801-22000] [22001-22200] [22201-22400] [22401-22600] [22601-22800] [22801-23000] [23001-23200] [23201-23400] [23401-23600] [23601-23800] [23801-24000] [24001-24200] [24201-24400] [24401-24600] [24601-24800] [24801-25000] [25001-25200] [25201-25400] [25401-25600] [25601-25800] [25801-26000] [26001-26200] [26201-26400] [26401-26600] [26601-26800] [26801-27000] [27001-27200] [27201-27400] [27401-27600] [27601-27800] [27801-28000] [28001-28200] [28201-28400] [28401-28600] [28601-28800] [28801-29000] [29001-29200] [29201-29400] [29401-29600] [29601-29800] [29801-30000] [30001-30200] [30201-30400] [30401-30600] [30601-30800] [30801-31000] [31001-31200] [31201-31400] [31401-31600] [31601-31800] [31801-32000] [32001-32200] [32201-32400] [32401-32600] [32601-32800] [32801-33000] [33001-33200] [33201-33400] [33401-33600] [33601-33800] [33801-34000] [34001-34200] [34201-34400] [34401-34600] [34601-34800] [34801-35000] [35001-35200] [35201-35400] [35401-35600] [35601-35800] [35801-36000] [36001-36200] [36201-36400] [36401-36600] [36601-36800] [36801-37000] [37001-37200] [37201-37400] [37401-37600] [37601-37800] [37801-38000] [38001-38200] [38201-38400] [38401-38600] [38601-38800] [38801-39000] [39001-39200] [39201-39400] [39401-39600] [39601-39800] [39801-40000] [40001-40200] [40201-40400] [40401-40600] [40601-40800] [40801-41000] [41001-41200] [41201-41400] [41401-41600] [41601-41800] [41801-42000] [42001-42200] [42201-42400] [42401-42600] [42601-42800] [42801-43000] [43001-43200] [43201-43400] [43401-43600] [43601-43800] [43801-44000] [44001-44200] [44201-44400] [44401-44600] [44601-44800] [44801-45000] [45001-45200] [45201-45400] [45401-45600] [45601-45800] [45801-46000] [46001-46200] [46201-46400] [46401-46600] [46601-46800] [46801-47000] [47001-47200] [47201-47400] [47401-47600] [47601-47800] [47801-48000] [48001-48200] [48201-48400] [48401-48600] [48601-48800] [48801-49000] [49001-49200] [49201-49400] [49401-49600] [49601-49800] [49801-50000] [50001-50200] [50201-50388]

Designation T Tech N Date Right Ascension Declination Apparent Magnitude Star Catalog Site code χ Used A Used M
yr-mo-day precision hr:min:sec precision rms F bias residual deg min sec precision rms F bias residual mag/col rms residual
1993HC O c 1993-04-21.18459 1.000E-05 13:06:02.870 1.500E-01 0.900 F 0.232 -0.271 +00° 59' 51.00" 1.000E-01 0.900 F -0.807 0.350 18.2 V 0.70 -0.13 i 691 0.50 Yes Yes
1993HC O c 1993-04-21.19661 1.000E-05 13:06:04.970 1.500E-01 0.900 F 0.232 -0.138 +01° 00' 07.20" 1.000E-01 0.900 F -0.807 0.107 18.4 V 0.70 0.07 i 691 0.20 Yes Yes
1993HC O c 1993-04-21.20488 1.000E-05 13:06:06.390 1.500E-01 0.900 F 0.232 -0.344 +01° 00' 18.30" 1.000E-01 0.900 F -0.807 -0.093 18.2 V 0.70 -0.13 i 691 0.41 Yes Yes
1993HC O c 1993-04-21.21226 1.000E-05 13:06:07.630 1.500E-01 0.900 F 0.232 -0.886 +01° 00' 28.50" 1.000E-01 0.900 F -0.807 0.032 18.0 V 0.70 -0.33 i 691 1.01 Yes Yes
1993HC O c 1993-04-21.21966 1.000E-05 13:06:08.940 1.500E-01 0.900 F 0.232 -0.389 +01° 00' 39.10" 1.000E-01 0.900 F -0.807 0.538 18.2 V 0.70 -0.14 i 691 0.75 Yes Yes
1993HC O c 1993-04-21.36193 1.000E-05 13:06:33.350 1.500E-01 0.900 F 0.232 0.229 +01° 03' 51.30" 1.000E-01 0.900 F -0.807 0.324 18.5 V 0.70 0.15 i 691 0.44 Yes Yes
1993HC O c 1993-04-21.36924 1.000E-05 13:06:34.600 1.500E-01 0.900 F 0.232 0.061 +01° 04' 01.00" 1.000E-01 0.900 F -0.807 0.222 18.5 V 0.70 0.15 i 691 0.26 Yes Yes
1993HC O c 1993-04-21.37665 1.000E-05 13:06:35.890 1.500E-01 0.900 F 0.232 0.195 +01° 04' 10.90" 1.000E-01 0.900 F -0.807 0.195 18.5 V 0.70 0.15 i 691 0.31 Yes Yes
1993HC O c 1993-04-22.31610 1.000E-05 13:09:26.840 1.500E-01 0.600 F -0.104 0.061 +01° 24' 17.60" 1.000E-01 0.600 F -0.606 0.004 17.8 V 0.70 -0.65 i 691 0.10 Yes Yes
1993HC O c 1993-04-22.32358 1.000E-05 13:09:28.040 1.500E-01 0.600 F -0.104 0.054 +01° 24' 26.90" 1.000E-01 0.600 F -0.606 0.136 17.8 V 0.70 -0.65 i 691 0.25 Yes Yes
1993HC O c 1993-04-22.33128 1.000E-05 13:09:29.280 1.500E-01 0.600 F -0.104 0.098 +01° 24' 36.10" 1.000E-01 0.600 F -0.606 -0.093 17.7 V 0.70 -0.75 i 691 0.23 Yes Yes
1993GD O c 1993-04-24.16652 1.000E-05 11:50:58.940 1.500E-01 0.600 F -0.530 0.130 +03° 14' 06.60" 1.000E-01 0.600 F 0.263 -0.278 20.8 V 0.70 0.34 i 691 0.52 Yes Yes
1993GD O c 1993-04-24.17664 1.000E-05 11:50:58.670 1.500E-01 0.600 F -0.530 -0.356 +03° 14' 26.90" 1.000E-01 0.600 F 0.263 -0.034 20.9 V 0.70 0.44 i 691 0.61 Yes Yes
1993GD O c 1993-04-24.18660 1.000E-05 11:50:58.360 1.500E-01 0.600 F -0.530 -1.485 +03° 14' 47.40" 1.000E-01 0.600 F 0.263 0.741 20.1 V 0.70 -0.36 i 691 2.83 Yes Yes
2004QU24 O C 1993-04-24.27085 1.000E-05 12:52:20.100 1.500E-01 0.600 F -0.082 0.511 +00° 40' 23.50" 1.000E-01 0.600 F -0.530 0.165 19.6 V 0.70 0.27 i 691 0.91 Yes Yes
2004QU24 O C 1993-04-24.29945 1.000E-05 12:52:19.040 1.500E-01 0.600 F -0.082 0.238 +00° 40' 44.00" 1.000E-01 0.600 F -0.530 -0.580 i 691 1.05 Yes No
2004QU24 O C 1993-04-24.32757 1.000E-05 12:52:18.020 1.500E-01 0.600 F -0.082 0.241 +00° 41' 05.20" 1.000E-01 0.600 F -0.530 -0.250 i 691 0.58 Yes No
1993HC O C 1993-04-25.19267 1.000E-05 13:17:14.490 1.500E-01 0.600 F -0.086 -0.206 +02° 15' 36.20" 1.000E-01 0.600 F -0.356 -0.291 18.5 V 0.70 -0.24 i 691 0.60 Yes Yes
1993HC O C 1993-04-25.20095 1.000E-05 13:17:15.650 1.500E-01 0.600 F -0.086 0.284 +02° 15' 43.90" 1.000E-01 0.600 F -0.356 -0.265 i 691 0.66 Yes No
1993HC O C 1993-04-25.20736 1.000E-05 13:17:16.500 1.500E-01 0.600 F -0.086 -0.023 +02° 15' 49.80" 1.000E-01 0.600 F -0.356 -0.299 i 691 0.51 Yes No
1993HA O c 1993-04-25.33350 1.000E-05 15:14:15.240 1.500E-01 0.600 F -0.747 0.190 -01° 40' 37.20" 1.000E-01 0.600 F -0.668 0.012 i 691 0.32 Yes No
1993HA O c 1993-04-25.33961 1.000E-05 15:14:14.630 1.500E-01 0.600 F -0.747 0.370 -01° 40' 29.30" 1.000E-01 0.600 F -0.668 0.061 19.2 V 0.70 -0.35 i 691 0.63 Yes Yes
1993HA O c 1993-04-25.34693 1.000E-05 15:14:13.870 1.500E-01 0.600 F -0.747 0.151 -01° 40' 19.70" 1.000E-01 0.600 F -0.668 0.254 i 691 0.49 Yes No
1993FS O c 1993-04-26.16181 1.000E-05 13:48:47.470 1.500E-01 0.600 F 0.068 0.314 +14° 07' 39.70" 1.000E-01 0.600 F -0.061 -3.842 i 691 6.35 No No
1993FS O c 1993-04-26.16818 1.000E-05 13:48:47.870 1.500E-01 0.600 F 0.068 -0.599 +14° 07' 47.90" 1.000E-01 0.600 F -0.061 -1.462 18.5 V 0.70 -0.21 i 691 2.67 Yes Yes
1993FS O c 1993-04-26.17422 1.000E-05 13:48:48.330 1.500E-01 0.600 F 0.068 -0.265 +14° 07' 53.60" 1.000E-01 0.600 F -0.061 -1.271 i 691 2.19 Yes No
1996FR3 O C 1993-04-26.27826 1.000E-05 14:03:50.890 1.500E-01 0.600 F 0.484 -1.276 -14° 00' 18.70" 1.000E-01 0.600 F -0.254 -0.596 19.4 V 0.70 -0.22 a 691 2.35 Yes Yes
1996FR3 O C 1993-04-26.31130 1.000E-05 14:03:47.790 1.500E-01 0.600 F 0.484 -0.290 -14° 00' 05.40" 1.000E-01 0.600 F -0.254 -0.228 19.8 V 0.70 0.18 a 691 0.62 Yes Yes
1996FR3 O C 1993-04-26.34476 1.000E-05 14:03:44.580 1.500E-01 0.600 F 0.484 -0.350 -13° 59' 52.20" 1.000E-01 0.600 F -0.254 -0.171 19.9 V 0.70 0.28 a 691 0.65 Yes Yes
1993EA O c 1993-04-27.15156 1.000E-05 11:15:48.620 1.500E-01 0.600 F -0.119 0.012 +13° 55' 11.50" 1.000E-01 0.600 F -0.308 -0.011 19.7 V 0.70 0.09 i 691 0.03 Yes Yes
1993EA O c 1993-04-27.15955 1.000E-05 11:15:48.160 1.500E-01 0.600 F -0.119 -0.118 +13° 55' 12.10" 1.000E-01 0.600 F -0.308 0.020 19.7 V 0.70 0.09 i 691 0.20 Yes Yes
1993GD O c 1993-04-27.16861 1.000E-05 11:50:27.840 1.500E-01 0.600 F 0.056 -0.307 +04° 47' 10.20" 1.000E-01 0.600 F 0.154 -0.286 20.8 V 0.70 0.17 i 691 0.71 Yes Yes
1993GD O c 1993-04-27.17425 1.000E-05 11:50:27.750 1.500E-01 0.600 F 0.056 -0.606 +04° 47' 20.00" 1.000E-01 0.600 F 0.154 -0.319 20.9 V 0.70 0.27 i 691 1.16 Yes Yes
1993GD O c 1993-04-27.18043 1.000E-05 11:50:27.730 1.500E-01 0.600 F 0.056 0.246 +04° 47' 31.40" 1.000E-01 0.600 F 0.154 0.311 20.8 V 0.70 0.17 i 691 0.67 Yes Yes
1993HP1 O c 1993-04-27.26345 1.000E-05 14:17:24.200 1.500E-01 1.643 F -0.284 0.953 -14° 34' 36.50" 1.000E-01 1.643 F -0.069 1.514 16.5 V 0.70 0.00 i 691 1.26 Yes Yes
1993HP1 O c 1993-04-27.26973 1.000E-05 14:17:48.800 1.500E-01 1.643 F -0.284 1.120 -14° 46' 00.70" 1.000E-01 1.643 F -0.069 -0.157 i 691 0.77 Yes No
1993HP1 O c 1993-04-27.27607 1.000E-05 14:18:13.460 1.500E-01 1.643 F -0.284 0.531 -14° 57' 26.80" 1.000E-01 1.643 F -0.069 -1.643 i 691 1.14 Yes No
1993HP1 O c 1993-04-27.28257 1.000E-05 14:18:38.530 1.500E-01 1.643 F -0.722 -0.921 -15° 09' 01.50" 1.000E-01 1.643 F -0.123 0.975 i 691 0.87 Yes No
1993HP1 O c 1993-04-27.29005 1.000E-05 14:19:07.500 1.500E-01 1.643 F -0.722 0.795 -15° 22' 20.50" 1.000E-01 1.643 F -0.123 -1.433 i 691 1.04 Yes No
1993HP1 O c 1993-04-27.29640 1.000E-05 14:19:31.730 1.500E-01 1.643 F -0.548 -1.451 -15° 33' 30.00" 1.000E-01 1.643 F -0.011 0.338 i 691 0.94 Yes No
1993HP1 O c 1993-04-27.30064 1.000E-05 14:19:47.960 1.500E-01 1.643 F -0.548 -1.243 -15° 40' 55.10" 1.000E-01 1.643 F -0.011 1.044 i 691 1.02 Yes No
1993HP1 O c 1993-04-27.30473 1.000E-05 14:20:03.540 1.500E-01 1.643 F -0.548 -1.514 -15° 48' 03.60" 1.000E-01 1.643 F -0.011 0.692 i 691 1.05 Yes No
1993HP1 O c 1993-04-27.30977 1.000E-05 14:20:22.880 1.500E-01 1.643 F -0.346 0.802 -15° 56' 50.10" 1.000E-01 1.643 F -0.298 -0.471 i 691 0.58 Yes No
1993HP1 O c 1993-04-27.31389 1.000E-05 14:20:38.540 1.500E-01 1.643 F -0.346 1.348 -16° 03' 59.40" 1.000E-01 1.643 F -0.298 -2.650 i 691 1.87 Yes No
1993HP1 O c 1993-04-27.31837 1.000E-05 14:20:55.340 1.500E-01 1.643 F -0.346 -0.710 -16° 11' 38.20" 1.000E-01 1.643 F -0.298 0.865 i 691 0.70 Yes No
1993HP1 O c 1993-04-27.32716 1.000E-05 14:21:28.380 1.500E-01 1.643 F -0.346 -1.773 -16° 26' 37.70" 1.000E-01 1.643 F -0.298 2.017 i 691 1.70 Yes No
1993HP1 O c 1993-04-27.33127 1.000E-05 14:21:43.880 1.500E-01 1.643 F -0.346 -0.728 -16° 33' 38.80" 1.000E-01 1.643 F -0.298 -0.877 i 691 0.72 Yes No
1993HP1 O c 1993-04-27.33616 1.000E-05 14:22:02.250 1.500E-01 1.643 F -0.180 -0.047 -16° 41' 53.60" 1.000E-01 1.643 F -0.712 -0.109 i 691 0.07 Yes No
1993HP1 O c 1993-04-27.34078 1.000E-05 14:22:19.570 1.500E-01 1.643 F -0.180 0.850 -16° 49' 39.50" 1.000E-01 1.643 F -0.712 -0.604 i 691 0.66 Yes No
1993HP1 O c 1993-04-27.34597 1.000E-05 14:22:38.810 1.500E-01 1.643 F -0.180 -0.578 -16° 58' 18.70" 1.000E-01 1.643 F -0.712 0.234 i 691 0.39 Yes No
1993HP1 O c 1993-04-27.35074 1.000E-05 14:22:56.630 1.500E-01 1.643 F -0.180 0.681 -17° 06' 14.10" 1.000E-01 1.643 F -0.712 0.193 i 691 0.45 Yes No
1993HP1 O c 1993-04-27.36411 1.000E-05 14:23:46.230 1.500E-01 1.643 F -0.180 2.080 -17° 28' 16.00" 1.000E-01 1.643 F -0.712 -2.504 i 691 2.05 Yes No
1993HP1 O c 1993-04-27.37003 1.000E-05 14:24:07.930 1.500E-01 1.643 F 0.108 -0.089 -17° 37' 50.40" 1.000E-01 1.643 F -0.372 0.689 i 691 0.44 Yes No
1993HP1 O c 1993-04-27.37418 1.000E-05 14:24:23.260 1.500E-01 1.643 F 0.108 0.700 -17° 44' 32.00" 1.000E-01 1.643 F -0.372 1.974 i 691 1.32 Yes No
1993HP1 O c 1993-04-27.37913 1.000E-05 14:24:41.430 1.500E-01 1.643 F 0.443 0.089 -17° 52' 33.10" 1.000E-01 1.643 F -0.063 -1.305 i 691 0.82 Yes No
1993HP1 O c 1993-04-27.38342 1.000E-05 14:24:57.160 1.500E-01 1.643 F 0.443 -0.039 -17° 59' 23.50" 1.000E-01 1.643 F -0.063 0.550 i 691 0.35 Yes No
1993HP1 O c 1993-04-27.38792 1.000E-05 14:25:13.600 1.500E-01 1.643 F 0.443 -0.690 -18° 06' 32.90" 1.000E-01 1.643 F -0.063 1.474 i 691 1.02 Yes No
1993HP1 O c 1993-04-27.39373 1.000E-05 14:25:34.880 1.500E-01 1.643 F 0.443 -0.275 -18° 15' 46.60" 1.000E-01 1.643 F -0.063 0.182 i 691 0.21 Yes No
1993HP1 O c 1993-04-27.39821 1.000E-05 14:25:51.290 1.500E-01 1.643 F 0.439 0.417 -18° 22' 51.30" 1.000E-01 1.643 F -0.010 -1.060 i 691 0.72 Yes No
1993HP1 O c 1993-04-27.40315 1.000E-05 14:26:09.290 1.500E-01 1.643 F 0.439 0.152 -18° 30' 34.50" 1.000E-01 1.643 F -0.010 0.281 i 691 0.20 Yes No
1993HP1 O c 1993-04-27.40894 1.000E-05 14:26:30.390 1.500E-01 1.643 F 0.439 0.291 -18° 39' 35.30" 1.000E-01 1.643 F -0.010 0.689 i 691 0.48 Yes No
1993HP1 O c 1993-04-27.41314 1.000E-05 14:26:45.650 1.500E-01 1.643 F 0.439 0.001 -18° 46' 07.00" 1.000E-01 1.643 F -0.010 -0.620 i 691 0.41 Yes No
1993HP1 O c 1993-04-27.42073 1.000E-05 14:27:13.170 1.500E-01 1.643 F 0.439 -0.832 -18° 57' 47.30" 1.000E-01 1.643 F -0.010 -0.080 i 691 0.58 Yes No
1993HP1 O c 1993-04-27.42495 1.000E-05 14:27:28.550 1.500E-01 1.643 F 0.439 0.082 -19° 04' 14.50" 1.000E-01 1.643 F -0.010 -0.195 i 691 0.15 Yes No
1993HC O c 1993-04-28.15001 1.000E-05 13:24:03.790 1.500E-01 0.600 F -0.128 0.250 +02° 54' 38.00" 1.000E-01 0.600 F -0.173 -0.115 18.8 V 0.70 -0.23 i 691 0.48 Yes Yes
1993HC O c 1993-04-28.15602 1.000E-05 13:24:04.610 1.500E-01 0.600 F -0.128 1.884 +02° 54' 43.00" 1.000E-01 0.600 F -0.173 0.825 18.3 V 0.70 -0.73 i 691 3.35 No Yes
1993HC O c 1993-04-28.17430 1.000E-05 13:24:06.690 1.500E-01 0.600 F -0.128 0.842 +02° 54' 54.30" 1.000E-01 0.600 F -0.173 -0.195 18.1 V 0.70 -0.93 i 691 1.49 Yes Yes
1993HA O c 1993-04-28.29631 1.000E-05 15:09:32.020 1.500E-01 0.600 F -0.422 0.008 -00° 38' 51.20" 1.000E-01 0.600 F -0.693 -0.486 20.8 V 0.70 1.27 i 691 0.81 Yes Yes
1993HA O c 1993-04-28.30199 1.000E-05 15:09:31.440 1.500E-01 0.600 F -0.422 0.236 -00° 38' 44.20" 1.000E-01 0.600 F -0.693 -0.377 19.9 V 0.70 0.37 i 691 0.75 Yes Yes
1993HA O c 1993-04-28.30805 1.000E-05 15:09:30.820 1.500E-01 0.600 F -0.422 0.469 -00° 38' 36.70" 1.000E-01 0.600 F -0.693 -0.227 19.6 V 0.70 0.07 i 691 0.88 Yes Yes
1993HC O c 1993-05-13.26369 1.000E-05 13:48:26.890 1.500E-01 0.600 F -0.139 -0.443 +03° 54' 26.80" 1.000E-01 0.600 F 0.280 -1.037 19.9 V 0.70 -0.40 i 691 1.92 Yes Yes
1993HA O c 1993-05-13.27621 1.000E-05 14:45:47.540 1.500E-01 0.600 F 0.750 0.250 +03° 19' 31.10" 1.000E-01 0.600 F 0.764 -0.022 20.4 V 0.70 0.55 i 691 0.42 Yes Yes
1993HC O c 1993-05-13.30097 1.000E-05 13:48:29.480 1.500E-01 0.600 F -0.139 0.271 +03° 54' 24.70" 1.000E-01 0.600 F 0.280 -0.032 20.6 V 0.70 0.30 i 691 0.50 Yes Yes
1993HA O c 1993-05-13.30798 1.000E-05 14:45:44.580 1.500E-01 0.600 F 0.750 0.333 +03° 19' 52.10" 1.000E-01 0.600 F 0.764 0.152 20.0 V 0.70 0.15 i 691 0.62 Yes Yes
1993HC O c 1993-05-13.33192 1.000E-05 13:48:31.590 1.500E-01 0.600 F -0.139 -0.014 +03° 54' 21.80" 1.000E-01 0.600 F 0.280 -0.266 20.7 V 0.70 0.40 i 691 0.44 Yes Yes
1993HA O c 1993-05-13.33854 1.000E-05 14:45:41.740 1.500E-01 0.600 F 0.750 0.390 +03° 20' 12.10" 1.000E-01 0.600 F 0.764 0.199 21.2 V 0.70 1.35 i 691 0.74 Yes Yes
1993FS O c 1993-05-13.35286 1.000E-05 14:11:11.110 1.500E-01 0.600 F -0.066 -0.669 +15° 54' 18.30" 1.000E-01 0.600 F 0.222 0.176 20.1 V 0.70 0.77 i 691 1.18 Yes Yes
1993FS O c 1993-05-13.36299 1.000E-05 14:11:11.860 1.500E-01 0.600 F -0.066 -0.074 +15° 54' 17.40" 1.000E-01 0.600 F 0.222 0.492 i 691 0.83 Yes No
1993EA O c 1993-05-14.16415 1.000E-05 11:07:08.340 1.500E-01 0.600 F -0.147 -0.056 +13° 33' 57.80" 1.000E-01 0.600 F 0.026 -0.093 20.1 V 0.70 0.12 i 691 0.18 Yes Yes
1993GD O c 1993-05-14.17149 1.000E-05 11:56:23.680 1.500E-01 0.600 F 0.060 0.627 +10° 19' 19.30" 1.000E-01 0.600 F -0.282 -0.594 21.7 V 0.70 0.23 i 691 1.45 Yes Yes
1993EA O c 1993-05-14.19612 1.000E-05 11:07:07.990 1.500E-01 0.600 F -0.147 0.000 +13° 33' 51.20" 1.000E-01 0.600 F 0.026 -0.157 20.2 V 0.70 0.22 i 691 0.26 Yes Yes
1993GD O c 1993-05-14.20197 1.000E-05 11:56:24.690 1.500E-01 0.600 F 0.060 -1.192 +10° 19' 41.70" 1.000E-01 0.600 F -0.282 0.886 22.4 V 0.70 0.93 i 691 2.49 Yes Yes
1993EA O c 1993-05-14.21877 1.000E-05 11:07:07.790 1.500E-01 0.600 F -0.147 0.663 +13° 33' 47.20" 1.000E-01 0.600 F 0.026 0.512 20.6 V 0.70 0.62 i 691 1.40 Yes Yes
1993GD O c 1993-05-14.22847 1.000E-05 11:56:25.990 1.500E-01 0.600 F 0.060 3.326 +10° 19' 59.80" 1.000E-01 0.600 F -0.282 0.908 i 691 5.69 No No
1993KA O c 1993-05-17.16297 1.000E-05 12:02:34.520 1.500E-01 0.995 F -0.149 2.578 -01° 45' 09.20" 1.000E-01 0.995 F 0.280 2.487 17.7 V 0.70 0.25 i 691 3.42 No Yes
1993KA O c 1993-05-17.16914 1.000E-05 12:02:57.820 1.500E-01 0.995 F -0.311 -0.656 -01° 41' 45.40" 1.000E-01 0.995 F 0.056 -0.916 i 691 1.20 Yes No
1993KA O c 1993-05-17.17582 1.000E-05 12:03:23.370 1.500E-01 0.995 F -0.311 -0.029 -01° 37' 59.40" 1.000E-01 0.995 F 0.056 0.169 i 691 0.18 Yes No
1993KA O c 1993-05-17.19061 1.000E-05 12:04:19.980 1.500E-01 0.995 F -0.201 -0.518 -01° 29' 41.00" 1.000E-01 0.995 F -0.235 -0.353 i 691 0.67 Yes No
1993KA O c 1993-05-17.24466 1.000E-05 12:07:49.230 1.500E-01 0.995 F -0.301 -4.029 -00° 59' 02.80" 1.000E-01 0.995 F -0.919 1.025 i 691 4.01 No No
1993KA O c 1993-05-17.25053 1.000E-05 12:08:12.470 1.500E-01 0.995 F -0.301 -1.168 -00° 55' 44.80" 1.000E-01 0.995 F -0.919 -1.651 i 691 2.15 Yes No
1993KA O c 1993-05-17.27700 1.000E-05 12:09:57.520 1.500E-01 0.995 F -0.229 2.200 -00° 40' 37.10" 1.000E-01 0.995 F -1.475 -0.683 i 691 2.42 Yes No
1993KA O c 1993-05-17.28292 1.000E-05 12:10:20.770 1.500E-01 0.995 F -0.229 -3.878 -00° 37' 15.50" 1.000E-01 0.995 F -1.475 -2.495 i 691 4.39 No No
1993KA O c 1993-05-17.30400 1.000E-05 12:11:45.990 1.500E-01 0.995 F -0.229 0.669 -00° 25' 05.80" 1.000E-01 0.995 F -1.475 1.551 i 691 1.78 Yes No
1993KA O c 1993-05-17.31011 1.000E-05 12:12:10.790 1.500E-01 0.995 F -0.229 0.337 -00° 21' 37.30" 1.000E-01 0.995 F -1.475 -0.647 i 691 0.75 Yes No
1993KA O c 1993-05-17.31762 1.000E-05 12:12:41.580 1.500E-01 0.995 F -0.236 2.535 -00° 17' 17.00" 1.000E-01 0.995 F -1.589 0.577 i 691 2.78 Yes No
1993KA O c 1993-05-18.15494 1.000E-05 13:17:11.170 1.500E-01 0.600 F 0.154 -1.390 +07° 57' 24.40" 1.000E-01 0.600 F 0.411 0.205 17.1 V 0.70 0.02 i 691 2.69 Yes Yes
1993KA O c 1993-05-18.16212 1.000E-05 13:17:41.480 1.500E-01 0.600 F 0.154 0.091 +08° 01' 35.10" 1.000E-01 0.600 F 0.411 -0.377 17.1 V 0.70 0.02 i 691 0.69 Yes Yes
1993KA O c 1993-05-18.18188 1.000E-05 13:19:04.430 1.500E-01 0.600 F 0.154 0.227 +08° 13' 05.10" 1.000E-01 0.600 F 0.411 0.797 17.1 V 0.70 0.02 i 691 1.50 Yes Yes
1993KA O c 1993-05-18.35970 1.000E-05 13:31:34.360 1.500E-01 0.600 F 0.056 -0.663 +09° 52' 47.50" 1.000E-01 0.600 F 0.021 -0.910 17.1 V 0.70 0.03 i 691 2.01 Yes Yes
1993KA O c 1993-05-19.19753 1.000E-05 14:33:46.810 1.500E-01 0.600 F -0.101 3.601 +16° 40' 31.20" 1.000E-01 0.600 F 0.342 0.840 17.0 V 0.70 -0.18 i 691 5.59 No Yes
1993KA O c 1993-05-19.38936 1.000E-05 14:45:17.890 1.500E-01 0.600 F 0.146 0.489 +17° 53' 33.50" 1.000E-01 0.600 F 0.031 0.887 17.4 V 0.70 0.15 i 691 1.83 Yes Yes
1993KA O c 1993-05-20.14768 1.000E-05 15:31:11.510 1.500E-01 0.735 F 0.601 0.225 +21° 38' 14.60" 1.000E-01 0.735 F 0.074 -0.768 17.8 V 0.70 0.23 i 691 1.12 Yes Yes
1993KA O c 1993-05-20.15630 1.000E-05 15:31:36.590 1.500E-01 0.735 F 0.601 1.009 +21° 40' 28.80" 1.000E-01 0.735 F 0.074 0.516 17.8 V 0.70 0.23 i 691 1.65 Yes Yes
1993KA O c 1993-05-20.16458 1.000E-05 15:32:00.380 1.500E-01 0.735 F 0.601 0.084 +21° 42' 35.20" 1.000E-01 0.735 F 0.074 0.361 17.6 V 0.70 0.02 i 691 0.52 Yes Yes
1993KA O c 1993-05-20.43935 1.000E-05 15:44:15.940 1.500E-01 0.735 F 0.229 0.368 +22° 40' 43.00" 1.000E-01 0.735 F 0.238 0.552 18.0 V 0.70 0.29 i 691 0.97 Yes Yes
1993KA O c 1993-05-20.44876 1.000E-05 15:44:40.580 1.500E-01 0.735 F 0.229 -2.606 +22° 42' 17.10" 1.000E-01 0.735 F 0.238 -1.090 17.8 V 0.70 0.08 i 691 3.48 No Yes
1993KA O c 1993-05-20.45742 1.000E-05 15:45:03.970 1.500E-01 0.735 F 0.229 3.690 +22° 43' 46.50" 1.000E-01 0.735 F 0.238 1.312 17.8 V 0.70 0.08 i 691 4.81 No Yes
1993KA O c 1993-05-21.14588 1.000E-05 16:15:42.660 1.500E-01 0.671 F 0.301 -0.238 +24° 28' 48.30" 1.000E-01 0.671 F 0.068 -2.427 17.6 V 0.70 -0.46 i 691 3.51 No Yes
1993KA O c 1993-05-21.15258 1.000E-05 16:15:56.670 1.500E-01 0.671 F 0.301 -2.130 +24° 29' 48.30" 1.000E-01 0.671 F 0.068 -1.257 17.6 V 0.70 -0.46 i 691 3.47 No Yes
1993KA O c 1993-05-21.15931 1.000E-05 16:16:11.100 1.500E-01 0.671 F 0.301 2.301 +24° 30' 50.90" 1.000E-01 0.671 F 0.068 2.706 17.6 V 0.70 -0.47 i 691 5.03 No Yes
1993KA2 O c 1993-05-21.19409 1.000E-05 14:54:18.660 1.500E-01 1.082 F 0.042 -0.536 -10° 04' 19.40" 1.000E-01 1.082 F 0.042 -0.329 18.5 V 0.70 0.18 i 691 0.73 Yes Yes
1993KA2 O c 1993-05-21.22291 1.000E-05 14:57:18.180 1.500E-01 1.082 F 0.341 -1.446 -10° 31' 09.60" 1.000E-01 1.082 F 0.153 1.496 i 691 2.19 Yes No
1993KA2 O c 1993-05-21.23127 1.000E-05 14:58:05.330 1.500E-01 1.082 F 0.341 1.259 -10° 38' 11.80" 1.000E-01 1.082 F 0.153 -0.575 18.4 V 0.70 -0.10 i 691 1.43 Yes Yes
1993KA2 O c 1993-05-21.27497 1.000E-05 15:01:40.800 1.500E-01 1.082 F 0.111 1.621 -11° 10' 06.40" 1.000E-01 1.082 F -0.015 -2.051 i 691 2.57 Yes No
1993KA2 O c 1993-05-21.28335 1.000E-05 15:02:17.090 1.500E-01 1.082 F 0.111 -0.178 -11° 15' 24.90" 1.000E-01 1.082 F -0.015 -0.608 18.6 V 0.70 -0.14 i 691 0.61 Yes Yes
1993KA2 O c 1993-05-21.33897 1.000E-05 15:05:48.420 1.500E-01 1.082 F 0.048 -0.048 -11° 45' 48.00" 1.000E-01 1.082 F -0.173 1.049 19.3 V 0.70 0.33 i 691 1.03 Yes Yes
1993KA2 O c 1993-05-21.36345 1.000E-05 15:07:07.840 1.500E-01 1.082 F -0.130 -2.022 -11° 56' 53.40" 1.000E-01 1.082 F -0.039 2.443 19.4 V 0.70 0.33 i 691 3.10 Yes Yes
1993KA2 O c 1993-05-21.37129 1.000E-05 15:07:32.160 1.500E-01 1.082 F -0.130 1.384 -12° 00' 15.20" 1.000E-01 1.082 F -0.039 -0.330 i 691 1.39 Yes No
1993KA2 O c 1993-05-21.37948 1.000E-05 15:07:56.680 1.500E-01 1.082 F -0.130 1.569 -12° 03' 36.30" 1.000E-01 1.082 F -0.039 -0.464 i 691 1.61 Yes No
1993KA2 O c 1993-05-21.39251 1.000E-05 15:08:34.320 1.500E-01 1.082 F -0.130 0.700 -12° 08' 42.80" 1.000E-01 1.082 F -0.039 -1.041 19.5 V 0.70 0.33 i 691 1.23 Yes Yes
1993KA2 O c 1993-05-21.40894 1.000E-05 15:09:19.590 1.500E-01 1.082 F -0.130 -2.118 -12° 14' 44.10" 1.000E-01 1.082 F -0.039 0.965 19.4 V 0.70 0.17 i 691 2.31 Yes Yes
1993KA2 O c 1993-05-21.41766 1.000E-05 15:09:42.870 1.500E-01 1.082 F -0.130 -1.918 -12° 17' 48.30" 1.000E-01 1.082 F -0.039 0.148 i 691 1.93 Yes No
1993KA2 O c 1993-05-21.42479 1.000E-05 15:10:01.730 1.500E-01 1.082 F -0.121 1.727 -12° 20' 14.20" 1.000E-01 1.082 F -0.152 -0.260 i 691 1.75 Yes No
1993KA O c 1993-05-21.44727 1.000E-05 16:25:14.000 1.500E-01 0.671 F 0.216 -4.394 +25° 03' 11.50" 1.000E-01 0.671 F -0.033 -2.432 17.3 V 0.70 -0.90 i 691 6.74 No Yes
1993KA O c 1993-05-21.45577 1.000E-05 16:25:29.860 1.500E-01 0.671 F 0.216 -1.010 +25° 03' 54.50" 1.000E-01 0.671 F -0.033 0.235 i 691 1.81 Yes No
1993KA2 O c 1993-05-22.24230 1.000E-05 15:26:30.080 1.500E-01 0.600 F -0.424 0.002 -14° 17' 30.90" 1.000E-01 0.600 F -0.511 -0.136 20.0 V 0.70 -1.10 i 691 1.28 Yes Yes
1993KA O c 1993-05-22.37664 1.000E-05 16:52:56.250 1.500E-01 0.600 F -0.401 3.921 +26° 12' 26.70" 1.000E-01 0.600 F 0.154 2.864 i 691 7.45 No No
1993KA O c 1993-05-22.38545 1.000E-05 16:53:07.280 1.500E-01 0.600 F -0.401 2.398 +26° 12' 46.50" 1.000E-01 0.600 F 0.154 -2.247 i 691 5.06 No No
1993KA O c 1993-05-22.39423 1.000E-05 16:53:18.330 1.500E-01 0.600 F -0.401 1.678 +26° 13' 10.80" 1.000E-01 0.600 F 0.154 -1.922 i 691 3.95 No No
1993EA O c 1993-05-26.16543 1.000E-05 11:08:04.380 1.500E-01 0.600 F 0.361 -0.645 +12° 39' 19.80" 1.000E-01 0.600 F 0.242 0.304 20.9 V 0.70 0.73 i 691 1.19 Yes Yes
1993EA O c 1993-05-26.17546 1.000E-05 11:08:04.540 1.500E-01 0.600 F 0.361 -0.543 +12° 39' 16.50" 1.000E-01 0.600 F 0.242 0.432 20.6 V 0.70 0.43 i 691 1.16 Yes Yes
1993EA O c 1993-05-26.18525 1.000E-05 11:08:04.710 1.500E-01 0.600 F 0.361 -0.253 +12° 39' 12.60" 1.000E-01 0.600 F 0.242 -0.117 21.0 V 0.70 0.83 i 691 0.46 Yes Yes
1993FS O c 1993-05-26.19972 1.000E-05 14:27:48.730 1.500E-01 0.600 F -0.080 -1.621 +14° 33' 34.70" 1.000E-01 0.600 F 0.065 2.611 19.4 V 0.70 -0.39 i 691 5.07 No Yes
1993FS O c 1993-05-26.20976 1.000E-05 14:27:49.560 1.500E-01 0.600 F -0.080 0.025 +14° 33' 26.30" 1.000E-01 0.600 F 0.065 0.373 20.4 V 0.70 0.61 i 691 0.63 Yes Yes
1993FS O c 1993-05-26.22045 1.000E-05 14:27:50.320 1.500E-01 0.600 F -0.080 -0.009 +14° 33' 19.40" 1.000E-01 0.600 F 0.065 0.057 20.8 V 0.70 1.00 i 691 0.10 Yes Yes
1993HA O c 1993-05-26.23010 1.000E-05 14:30:47.950 1.500E-01 0.600 F 0.144 0.208 +04° 42' 11.50" 1.000E-01 0.600 F -0.109 -0.161 20.7 V 0.70 0.32 i 691 0.44 Yes Yes
1993HA O c 1993-05-26.26866 1.000E-05 14:30:45.720 1.500E-01 0.600 F 0.144 -0.355 +04° 42' 16.30" 1.000E-01 0.600 F -0.109 -0.020 20.9 V 0.70 0.52 i 691 0.60 Yes Yes
1993KA O C 1993-05-26.36420 1.000E-05 17:53:13.190 1.500E-01 0.600 F -0.024 -0.647 +27° 20' 28.10" 1.000E-01 0.600 F -0.235 0.531 20.6 V 0.70 0.66 i 691 1.48 Yes Yes
1993KA O C 1993-05-26.38188 1.000E-05 17:53:19.790 1.500E-01 0.600 F -0.024 -0.959 +27° 20' 28.40" 1.000E-01 0.600 F -0.235 -0.009 19.6 V 0.70 -0.34 i 691 1.71 Yes Yes
1993KA O C 1993-05-26.38525 1.000E-05 17:53:21.080 1.500E-01 0.600 F -0.024 -0.553 +27° 20' 28.10" 1.000E-01 0.600 F -0.235 -0.256 19.7 V 0.70 -0.24 i 691 1.08 Yes Yes
1993HC O c 1993-05-27.29629 1.000E-05 14:04:44.440 1.500E-01 0.600 F 0.435 0.085 +02° 55' 00.90" 1.000E-01 0.600 F 0.088 -0.408 22.0 V 0.70 0.73 i 691 0.70 Yes Yes
1993HC O c 1993-05-27.30645 1.000E-05 14:04:45.050 1.500E-01 0.600 F 0.435 -0.016 +02° 54' 56.90" 1.000E-01 0.600 F 0.088 -0.419 21.5 V 0.70 0.23 i 691 0.70 Yes Yes
1993HC O c 1993-05-27.31599 1.000E-05 14:04:45.680 1.500E-01 0.600 F 0.435 0.717 +02° 54' 53.20" 1.000E-01 0.600 F 0.088 -0.369 21.8 V 0.70 0.53 i 691 1.42 Yes Yes
1993KH O c 1993-05-28.20034 1.000E-05 13:54:27.490 1.500E-01 0.600 F 0.113 0.315 -18° 44' 39.00" 1.000E-01 0.600 F 0.330 -0.261 i 691 0.69 Yes No
1993KH O c 1993-05-28.21053 1.000E-05 13:54:24.670 1.500E-01 0.600 F 0.113 0.342 -18° 44' 53.70" 1.000E-01 0.600 F 0.330 0.219 17.7 V 0.70 0.30 i 691 0.68 Yes Yes
1993KH O c 1993-05-28.22106 1.000E-05 13:54:21.740 1.500E-01 0.600 F 0.113 0.141 -18° 45' 09.20" 1.000E-01 0.600 F 0.330 0.363 17.8 V 0.70 0.40 i 691 0.65 Yes Yes
1993KA O c 1993-05-29.37195 1.000E-05 18:12:57.910 1.500E-01 0.600 F 0.241 0.374 +27° 11' 16.10" 1.000E-01 0.600 F 0.272 -0.416 20.3 V 0.70 -0.28 i 691 1.01 Yes Yes
1993KA O c 1993-05-29.37663 1.000E-05 18:12:58.780 1.500E-01 0.600 F 0.241 0.804 +27° 11' 15.40" 1.000E-01 0.600 F 0.272 0.200 21.0 V 0.70 0.42 i 691 1.51 Yes Yes
1993KA O c 1993-05-29.39321 1.000E-05 18:13:01.710 1.500E-01 0.600 F 0.241 0.397 +27° 11' 09.00" 1.000E-01 0.600 F 0.272 -0.757 20.8 V 0.70 0.21 i 691 1.53 Yes Yes
1993KA O c 1993-05-29.39668 1.000E-05 18:13:02.320 1.500E-01 0.600 F 0.241 0.272 +27° 11' 08.10" 1.000E-01 0.600 F 0.272 -0.364 21.2 V 0.70 0.61 i 691 0.82 Yes Yes
1993KH O c 1993-05-30.21635 1.000E-05 13:45:36.240 1.500E-01 0.600 F -0.169 -0.119 -19° 34' 45.30" 1.000E-01 0.600 F 0.643 -0.133 i 691 0.30 Yes No
1993KH O c 1993-05-30.23779 1.000E-05 13:45:30.360 1.500E-01 0.600 F -0.169 0.312 -19° 35' 17.00" 1.000E-01 0.600 F 0.643 -0.103 i 691 0.55 Yes No
1993KH O c 1993-05-30.25580 1.000E-05 13:45:25.390 1.500E-01 0.600 F -0.169 0.127 -19° 35' 43.60" 1.000E-01 0.600 F 0.643 -0.188 i 691 0.38 Yes No
1993FS O c 1993-06-13.16641 1.000E-05 14:52:13.880 1.500E-01 0.600 F 0.024 -0.175 +10° 22' 53.60" 1.000E-01 0.600 F 0.001 -0.288 i 691 0.57 Yes No
1993FS O c 1993-06-13.17597 1.000E-05 14:52:14.660 1.500E-01 0.600 F 0.024 0.233 +10° 22' 44.30" 1.000E-01 0.600 F 0.001 -0.088 i 691 0.43 Yes No
1993FS O c 1993-06-13.18547 1.000E-05 14:52:15.430 1.500E-01 0.600 F 0.024 0.570 +10° 22' 34.80" 1.000E-01 0.600 F 0.001 -0.138 20.5 V 0.70 0.05 i 691 1.00 Yes Yes
2001JL1 O C 1993-06-13.29556 1.000E-05 15:53:44.070 1.500E-01 0.600 F -0.165 0.004 -01° 58' 55.40" 1.000E-01 0.600 F -0.912 0.451 20.0 V 0.70 0.14 a 691 0.76 Yes Yes
2001JL1 O C 1993-06-13.32487 1.000E-05 15:53:42.660 1.500E-01 0.600 F -0.165 0.463 -01° 58' 43.30" 1.000E-01 0.600 F -0.912 -0.805 20.3 V 0.70 0.44 a 691 1.55 Yes Yes
2001JL1 O C 1993-06-13.35370 1.000E-05 15:53:41.230 1.500E-01 0.600 F -0.165 0.158 -01° 58' 30.70" 1.000E-01 0.600 F -0.912 -1.329 20.8 V 0.70 0.94 a 691 2.24 Yes Yes
1993EA O c 1993-06-17.17254 1.000E-05 11:21:14.970 1.500E-01 0.600 F -0.044 0.034 +10° 00' 31.10" 1.000E-01 0.600 F -0.580 0.116 20.6 V 0.70 0.22 i 691 0.20 Yes Yes
1993HA O c 1993-06-17.18677 1.000E-05 14:24:53.310 1.500E-01 0.600 F 0.579 -0.359 +03° 25' 46.30" 1.000E-01 0.600 F 0.396 -0.263 21.7 V 0.70 0.47 i 691 0.74 Yes Yes
1993EA O c 1993-06-17.19383 1.000E-05 11:21:16.030 1.500E-01 0.600 F -0.044 -0.345 +10° 00' 19.70" 1.000E-01 0.600 F -0.580 -0.198 21.1 V 0.70 0.72 i 691 0.66 Yes Yes
1993EA O c 1993-06-17.19922 1.000E-05 11:21:16.290 1.500E-01 0.600 F -0.044 -0.576 +10° 00' 17.20" 1.000E-01 0.600 F -0.580 0.111 21.0 V 0.70 0.62 i 691 0.98 Yes Yes
1993HA O c 1993-06-17.20780 1.000E-05 14:24:53.540 1.500E-01 0.600 F 0.579 -0.275 +03° 25' 36.30" 1.000E-01 0.600 F 0.396 -0.392 21.4 V 0.70 0.17 i 691 0.80 Yes Yes
1993HA O c 1993-06-17.21277 1.000E-05 14:24:53.590 1.500E-01 0.600 F 0.579 -0.328 +03° 25' 34.50" 1.000E-01 0.600 F 0.396 0.144 21.9 V 0.70 0.67 i 691 0.60 Yes Yes
2015TQ178 O c 1993-07-24.20464 1.000E-05 15:00:49.870 1.500E-01 0.600 F 0.479 -0.291 -11° 59' 06.80" 1.000E-01 0.600 F -0.318 -0.204 i 691 0.64 Yes No
2015TQ178 O c 1993-07-24.21276 1.000E-05 15:00:51.090 1.500E-01 0.600 F 0.479 0.353 -11° 59' 04.80" 1.000E-01 0.600 F -0.318 0.464 20.9 V 0.70 0.44 i 691 1.02 Yes Yes
2015TQ178 O c 1993-07-24.22435 1.000E-05 15:00:52.720 1.500E-01 0.600 F 0.479 -0.438 -11° 59' 03.80" 1.000E-01 0.600 F -0.318 -0.452 i 691 1.11 Yes No
2015TQ178 O c 1993-07-25.17370 1.000E-05 15:03:19.960 1.500E-01 0.600 F 0.479 0.396 -11° 56' 51.20" 1.000E-01 0.600 F -0.318 -0.079 20.4 V 0.70 -0.06 i 691 0.74 Yes Yes
2015TQ178 O c 1993-07-25.18206 1.000E-05 15:03:21.180 1.500E-01 0.600 F 0.479 0.102 -11° 56' 49.90" 1.000E-01 0.600 F -0.318 -0.037 20.6 V 0.70 0.14 i 691 0.20 Yes Yes
2015TQ178 O c 1993-07-25.19024 1.000E-05 15:03:22.380 1.500E-01 0.600 F 0.479 -0.131 -11° 56' 48.10" 1.000E-01 0.600 F -0.318 0.522 21.0 V 0.70 0.54 i 691 0.92 Yes Yes
1993PB O c 1993-08-13.19268 1.000E-05 21:13:24.470 1.500E-01 0.600 F -0.048 -0.215 -10° 09' 10.90" 1.000E-01 0.600 F 0.168 -0.071 18.0 V 0.70 0.52 i 691 0.38 Yes Yes
1993PB O c 1993-08-13.22507 1.000E-05 21:13:18.750 1.500E-01 0.600 F -0.048 -0.271 -10° 08' 58.40" 1.000E-01 0.600 F 0.168 -0.357 17.9 V 0.70 0.42 i 691 0.76 Yes Yes
1993PB O c 1993-08-13.25864 1.000E-05 21:13:12.850 1.500E-01 0.600 F -0.048 0.206 -10° 08' 44.70" 1.000E-01 0.600 F 0.168 0.039 18.0 V 0.70 0.52 i 691 0.35 Yes Yes
2003YK118 O C 1993-08-13.40668 1.000E-05 22:23:57.000 1.500E-01 0.600 F 0.287 0.455 -10° 11' 34.60" 1.000E-01 0.600 F -0.227 -0.742 22.3 V 0.70 2.23 a 691 1.45 Yes No
2003YK118 O C 1993-08-13.42534 1.000E-05 22:23:54.680 1.500E-01 0.600 F 0.287 -0.539 -10° 11' 40.10" 1.000E-01 0.600 F -0.227 -1.105 22.4 V 0.70 2.33 a 691 2.05 Yes No
2003YK118 O C 1993-08-13.44346 1.000E-05 22:23:52.520 1.500E-01 0.600 F 0.287 -0.190 -10° 11' 44.70" 1.000E-01 0.600 F -0.227 -0.737 23.1 V 0.70 3.03 a 691 1.27 Yes No
1993PB O c 1993-08-14.24796 1.000E-05 21:10:22.630 1.500E-01 0.600 F -0.048 -0.089 -10° 02' 12.00" 1.000E-01 0.600 F 0.169 -0.376 17.8 V 0.70 0.27 i 691 0.65 Yes Yes
1993PB O c 1993-08-14.25743 1.000E-05 21:10:21.070 1.500E-01 0.600 F -0.048 1.196 -10° 02' 07.80" 1.000E-01 0.600 F 0.169 0.104 i 691 2.01 Yes No
1993PB O c 1993-08-14.26667 1.000E-05 21:10:19.390 1.500E-01 0.600 F -0.048 0.120 -10° 02' 04.20" 1.000E-01 0.600 F 0.169 0.070 18.0 V 0.70 0.46 i 691 0.23 Yes Yes
1993PB O c 1993-08-15.33552 1.000E-05 21:07:18.530 1.500E-01 0.600 F -0.056 0.000 -09° 55' 04.50" 1.000E-01 0.600 F 0.169 0.029 17.9 V 0.70 0.30 i 691 0.05 Yes Yes
1993PB O c 1993-08-15.34303 1.000E-05 21:07:17.250 1.500E-01 0.600 F -0.056 0.013 -09° 55' 01.50" 1.000E-01 0.600 F 0.169 0.079 17.9 V 0.70 0.30 i 691 0.13 Yes Yes
1993PB O c 1993-08-15.35614 1.000E-05 21:07:14.990 1.500E-01 0.600 F -0.056 -0.362 -09° 54' 56.50" 1.000E-01 0.600 F 0.169 -0.077 17.9 V 0.70 0.30 i 691 0.62 Yes Yes
1993PC O c 1993-08-15.38287 1.000E-05 22:27:53.510 1.500E-01 0.600 F -0.383 0.130 -11° 33' 25.60" 1.000E-01 0.600 F 0.096 -0.100 19.2 V 0.70 -0.07 i 691 0.27 Yes Yes
1993PC O c 1993-08-15.40456 1.000E-05 22:27:50.400 1.500E-01 0.600 F -0.144 -0.191 -11° 33' 38.30" 1.000E-01 0.600 F -0.362 0.774 19.6 V 0.70 0.33 i 691 1.33 Yes Yes
1993PC O c 1993-08-15.42645 1.000E-05 22:27:47.250 1.500E-01 0.600 F -0.144 -0.497 -11° 33' 51.70" 1.000E-01 0.600 F -0.362 0.575 19.4 V 0.70 0.13 i 691 1.27 Yes Yes
1993QA O c 1993-08-16.21713 1.000E-05 21:39:21.740 1.500E-01 0.600 F -0.214 -0.011 -12° 08' 06.60" 1.000E-01 0.600 F -0.090 0.396 19.3 V 0.70 0.27 i 691 0.66 Yes Yes
1993QA O c 1993-08-16.24966 1.000E-05 21:39:18.620 1.500E-01 0.600 F -0.214 -0.320 -12° 08' 43.30" 1.000E-01 0.600 F -0.090 -0.032 19.5 V 0.70 0.47 i 691 0.55 Yes Yes
1993QA O c 1993-08-16.28518 1.000E-05 21:39:15.230 1.500E-01 0.600 F -0.214 -0.233 -12° 09' 22.70" 1.000E-01 0.600 F -0.090 0.095 19.5 V 0.70 0.47 i 691 0.43 Yes Yes
1993PC O c 1993-08-16.30564 1.000E-05 22:25:44.980 1.500E-01 0.600 F -0.108 -0.231 -11° 42' 48.70" 1.000E-01 0.600 F -0.249 0.028 19.0 V 0.70 -0.22 i 691 0.39 Yes Yes
1993PC O c 1993-08-16.31534 1.000E-05 22:25:43.580 1.500E-01 0.600 F -0.108 -0.125 -11° 42' 54.50" 1.000E-01 0.600 F -0.249 0.183 19.0 V 0.70 -0.22 i 691 0.37 Yes Yes
1993PC O c 1993-08-16.32450 1.000E-05 22:25:42.260 1.500E-01 0.600 F -0.108 0.013 -11° 43' 00.10" 1.000E-01 0.600 F -0.249 0.199 18.9 V 0.70 -0.32 i 691 0.33 Yes Yes
1993PB O C 1993-08-17.17617 1.000E-05 21:02:16.470 1.500E-01 0.735 F -0.031 0.362 -09° 43' 14.00" 1.000E-01 0.735 F 0.192 0.213 17.9 V 0.70 0.20 a 691 0.57 Yes Yes
1993PB O C 1993-08-17.21750 1.000E-05 21:02:09.680 1.500E-01 0.735 F -0.031 0.273 -09° 42' 58.60" 1.000E-01 0.735 F 0.192 0.039 17.9 V 0.70 0.19 a 691 0.38 Yes Yes
1993PB O C 1993-08-17.24250 1.000E-05 21:02:05.570 1.500E-01 0.735 F -0.031 0.245 -09° 42' 49.00" 1.000E-01 0.735 F 0.192 0.182 17.9 V 0.70 0.19 a 691 0.42 Yes Yes
1993PB O c 1993-08-17.25916 1.000E-05 21:02:02.800 1.500E-01 0.735 F -0.063 -0.191 -09° 42' 43.00" 1.000E-01 0.735 F 0.260 -0.204 18.1 V 0.70 0.39 i 691 0.38 Yes Yes
1993PB O c 1993-08-17.26722 1.000E-05 21:02:01.450 1.500E-01 0.735 F -0.063 -0.564 -09° 42' 40.10" 1.000E-01 0.735 F 0.260 -0.365 18.0 V 0.70 0.29 i 691 0.92 Yes Yes
1993PB O c 1993-08-17.27534 1.000E-05 21:02:00.150 1.500E-01 0.735 F -0.063 -0.054 -09° 42' 36.70" 1.000E-01 0.735 F 0.260 -0.052 18.1 V 0.70 0.39 i 691 0.10 Yes Yes
1993QA O c 1993-08-17.28436 1.000E-05 21:37:43.240 1.500E-01 0.600 F -0.214 -0.338 -12° 27' 54.40" 1.000E-01 0.600 F -0.090 -0.003 19.1 V 0.70 0.04 i 691 0.57 Yes Yes
1993QA O c 1993-08-17.29245 1.000E-05 21:37:42.490 1.500E-01 0.600 F -0.214 0.098 -12° 28' 03.30" 1.000E-01 0.600 F -0.090 0.131 19.3 V 0.70 0.24 i 691 0.27 Yes Yes

[1-200] [201-400] [401-600] [601-800] [801-1000] [1001-1200] [1201-1400] [1401-1600] [1601-1800] [1801-2000] [2001-2200] [2201-2400] [2401-2600] [2601-2800] [2801-3000] [3001-3200] [3201-3400] [3401-3600] [3601-3800] [3801-4000] [4001-4200] [4201-4400] [4401-4600] [4601-4800] [4801-5000] [5001-5200] [5201-5400] [5401-5600] [5601-5800] [5801-6000] [6001-6200] [6201-6400] [6401-6600] [6601-6800] [6801-7000] [7001-7200] [7201-7400] [7401-7600] [7601-7800] [7801-8000] [8001-8200] [8201-8400] [8401-8600] [8601-8800] [8801-9000] [9001-9200] [9201-9400] [9401-9600] [9601-9800] [9801-10000] [10001-10200] [10201-10400] [10401-10600] [10601-10800] [10801-11000] [11001-11200] [11201-11400] [11401-11600] [11601-11800] [11801-12000] [12001-12200] [12201-12400] [12401-12600] [12601-12800] [12801-13000] [13001-13200] [13201-13400] [13401-13600] [13601-13800] [13801-14000] [14001-14200] [14201-14400] [14401-14600] [14601-14800] [14801-15000] [15001-15200] [15201-15400] [15401-15600] [15601-15800] [15801-16000] [16001-16200] [16201-16400] [16401-16600] [16601-16800] [16801-17000] [17001-17200] [17201-17400] [17401-17600] [17601-17800] [17801-18000] [18001-18200] [18201-18400] [18401-18600] [18601-18800] [18801-19000] [19001-19200] [19201-19400] [19401-19600] [19601-19800] [19801-20000] [20001-20200] [20201-20400] [20401-20600] [20601-20800] [20801-21000] [21001-21200] [21201-21400] [21401-21600] [21601-21800] [21801-22000] [22001-22200] [22201-22400] [22401-22600] [22601-22800] [22801-23000] [23001-23200] [23201-23400] [23401-23600] [23601-23800] [23801-24000] [24001-24200] [24201-24400] [24401-24600] [24601-24800] [24801-25000] [25001-25200] [25201-25400] [25401-25600] [25601-25800] [25801-26000] [26001-26200] [26201-26400] [26401-26600] [26601-26800] [26801-27000] [27001-27200] [27201-27400] [27401-27600] [27601-27800] [27801-28000] [28001-28200] [28201-28400] [28401-28600] [28601-28800] [28801-29000] [29001-29200] [29201-29400] [29401-29600] [29601-29800] [29801-30000] [30001-30200] [30201-30400] [30401-30600] [30601-30800] [30801-31000] [31001-31200] [31201-31400] [31401-31600] [31601-31800] [31801-32000] [32001-32200] [32201-32400] [32401-32600] [32601-32800] [32801-33000] [33001-33200] [33201-33400] [33401-33600] [33601-33800] [33801-34000] [34001-34200] [34201-34400] [34401-34600] [34601-34800] [34801-35000] [35001-35200] [35201-35400] [35401-35600] [35601-35800] [35801-36000] [36001-36200] [36201-36400] [36401-36600] [36601-36800] [36801-37000] [37001-37200] [37201-37400] [37401-37600] [37601-37800] [37801-38000] [38001-38200] [38201-38400] [38401-38600] [38601-38800] [38801-39000] [39001-39200] [39201-39400] [39401-39600] [39601-39800] [39801-40000] [40001-40200] [40201-40400] [40401-40600] [40601-40800] [40801-41000] [41001-41200] [41201-41400] [41401-41600] [41601-41800] [41801-42000] [42001-42200] [42201-42400] [42401-42600] [42601-42800] [42801-43000] [43001-43200] [43201-43400] [43401-43600] [43601-43800] [43801-44000] [44001-44200] [44201-44400] [44401-44600] [44601-44800] [44801-45000] [45001-45200] [45201-45400] [45401-45600] [45601-45800] [45801-46000] [46001-46200] [46201-46400] [46401-46600] [46601-46800] [46801-47000] [47001-47200] [47201-47400] [47401-47600] [47601-47800] [47801-48000] [48001-48200] [48201-48400] [48401-48600] [48601-48800] [48801-49000] [49001-49200] [49201-49400] [49401-49600] [49601-49800] [49801-50000] [50001-50200] [50201-50388]